Aviation Digital Data Service (ADDS)

Output produced by METARs form (1250 UTC 21 February 2018)
found at http://www.aviationweather.gov/adds/metars/
 
TAF WSAP 201100Z 2012/2118 04009KT 9999 FEW020CB
       
TAF WSSL 201100Z 2012/2118 04009KT 9999 FEW020CB
       
WSSS 211230Z VRB06KT 9999 FEW018 BKN300 27/24 Q1008 NOSIG
TAF WSSS 201100Z 2012/2118 04009KT 9999 FEW020CB